Time;durP1;ratioP1;P1;durP2;ratioP2;P2;SDS_P1;SDS_P2;PMS_P1;PMS_P2;Temp;Humidity;BMP_temperature;BMP_pressure;BME280_temperature;BME280_humidity;BME280_pressure;Samples;Min_cycle;Max_cycle;Signal;HPM_P1;HPM_P2
2023/04/12 00:01:23;;;;;;;1999.90;999.90;;;8.50;99.90;;;;;;5087073;28;20037;-83
2023/04/12 00:04:03;;;;;;;1999.90;999.90;;;8.50;99.90;;;;;;5077144;28;20036;-84
2023/04/12 00:06:31;;;;;;;1999.90;999.90;;;8.50;99.90;;;;;;5082044;28;20044;-83
2023/04/12 00:08:58;;;;;;;1999.90;999.90;;;8.60;99.90;;;;;;5101654;28;20048;-84
2023/04/12 00:11:27;;;;;;;1999.90;999.90;;;8.60;99.90;;;;;;5071670;28;20561;-85
2023/04/12 00:13:56;;;;;;;1999.90;999.90;;;8.70;99.90;;;;;;5080903;28;20056;-85
2023/04/12 00:16:21;;;;;;;1999.90;999.90;;;8.80;99.90;;;;;;5062197;28;20029;-83
2023/04/12 00:18:47;;;;;;;1999.90;999.90;;;8.70;99.90;;;;;;5064051;28;20556;-84
2023/04/12 00:21:16;;;;;;;1999.90;999.90;;;8.70;99.90;;;;;;5073898;28;20843;-84
2023/04/12 00:23:43;;;;;;;1999.90;999.90;;;8.80;99.90;;;;;;5084089;28;20048;-85
2023/04/12 00:26:09;;;;;;;1999.90;999.90;;;8.90;99.90;;;;;;5085123;28;20052;-83
2023/04/12 00:28:35;;;;;;;1999.90;999.90;;;9.00;99.80;;;;;;5084345;28;20041;-84
2023/04/12 00:31:01;;;;;;;1999.90;999.90;;;9.10;99.70;;;;;;5084454;28;20381;-84
2023/04/12 00:33:26;;;;;;;1999.90;999.90;;;9.20;98.90;;;;;;5067183;28;20041;-84
2023/04/12 00:35:55;;;;;;;1999.90;999.90;;;9.30;98.70;;;;;;5062412;28;20044;-85
2023/04/12 00:38:20;;;;;;;1999.90;999.90;;;9.30;99.90;;;;;;5079188;28;20036;-83
2023/04/12 00:40:52;;;;;;;1999.90;999.90;;;9.20;99.90;;;;;;5074741;28;20035;-84
2023/04/12 00:43:18;;;;;;;1999.90;999.90;;;9.20;99.90;;;;;;5099711;22;20044;-78
2023/04/12 00:45:47;;;;;;;1999.90;999.90;;;9.20;99.90;;;;;;5075827;28;20095;-78
2023/04/12 00:48:15;;;;;;;1999.90;999.90;;;9.20;99.90;;;;;;5076397;28;20094;-78
2023/04/12 00:50:43;;;;;;;1999.90;999.90;;;9.10;99.90;;;;;;5094901;28;20025;-78
2023/04/12 00:53:12;;;;;;;1999.90;999.90;;;9.10;99.90;;;;;;5076215;28;20064;-78
2023/04/12 00:55:39;;;;;;;1999.90;999.90;;;9.00;99.90;;;;;;5075961;28;21060;-78
2023/04/12 00:58:05;;;;;;;1999.90;999.90;;;9.00;99.90;;;;;;5076514;28;20090;-78
2023/04/12 01:00:31;;;;;;;1999.90;999.90;;;8.90;99.90;;;;;;5094750;28;20061;-78
2023/04/12 01:02:57;;;;;;;1999.90;999.90;;;8.90;99.90;;;;;;5094827;28;20032;-78
2023/04/12 01:05:23;;;;;;;1999.90;999.90;;;8.90;99.90;;;;;;5076237;28;20032;-78
2023/04/12 01:08:05;;;;;;;1999.90;999.90;;;8.80;99.90;;;;;;5075674;28;20052;-78
2023/04/12 01:10:42;;;;;;;1999.90;999.90;;;8.80;99.90;;;;;;5094824;28;20094;-78
2023/04/12 01:13:26;;;;;;;1999.90;999.90;;;8.70;99.90;;;;;;5094731;28;20028;-78
2023/04/12 01:16:05;;;;;;;1999.90;999.90;;;8.60;99.90;;;;;;5094300;28;20033;-77
2023/04/12 01:18:39;;;;;;;1999.90;999.90;;;8.50;99.90;;;;;;5076181;28;20049;-77
2023/04/12 01:21:09;;;;;;;1999.90;999.90;;;8.40;99.90;;;;;;5094667;28;20093;-78
2023/04/12 01:23:49;;;;;;;1999.90;999.90;;;8.20;99.90;;;;;;5075858;28;20035;-78
2023/04/12 01:26:31;;;;;;;1999.90;999.90;;;8.00;99.90;;;;;;5094296;28;20071;-77
2023/04/12 01:28:58;;;;;;;1999.90;999.90;;;7.80;99.90;;;;;;5079485;28;20044;-78
2023/04/12 01:31:24;;;;;;;1999.90;999.90;;;7.70;99.90;;;;;;5098054;28;20379;-78
2023/04/12 01:33:52;;;;;;;1999.90;999.90;;;7.60;99.90;;;;;;5079034;28;20116;-78
2023/04/12 01:36:20;;;;;;;1999.90;999.90;;;7.50;99.90;;;;;;5097867;28;20151;-78
2023/04/12 01:38:47;;;;;;;1999.90;999.90;;;7.40;99.90;;;;;;5097683;28;20115;-78
2023/04/12 01:41:13;;;;;;;1999.90;999.90;;;7.30;99.90;;;;;;5097559;28;20561;-79
2023/04/12 01:43:41;;;;;;;1999.90;999.90;;;7.30;99.90;;;;;;5097336;28;20032;-78
2023/04/12 01:46:07;;;;;;;1999.90;999.90;;;7.30;99.90;;;;;;5097649;28;20032;-78
2023/04/12 01:48:33;;;;;;;1999.90;999.90;;;7.20;99.90;;;;;;5079105;28;20040;-78
2023/04/12 01:51:10;;;;;;;1999.90;999.90;;;7.20;99.90;;;;;;5097800;28;20474;-78
2023/04/12 01:53:56;;;;;;;1999.90;999.90;;;7.20;99.90;;;;;;5097705;28;20036;-78
2023/04/12 01:56:23;;;;;;;1999.90;999.90;;;7.20;99.90;;;;;;5085492;28;20040;-78
2023/04/12 01:58:54;;;;;;;1999.90;999.90;;;7.20;99.90;;;;;;5058879;28;20124;-78
2023/04/12 02:01:21;;;;;;;1999.90;999.90;;;7.20;99.90;;;;;;5077790;28;20120;-78
2023/04/12 02:03:50;;;;;;;1999.90;999.90;;;7.20;99.90;;;;;;5058621;28;20029;-78
2023/04/12 02:06:19;;;;;;;1999.90;999.90;;;7.10;99.90;;;;;;5066109;28;20529;-78
2023/04/12 02:08:46;;;;;;;1999.90;999.90;;;7.10;99.90;;;;;;5078933;28;20540;-78
2023/04/12 02:11:11;;;;;;;1999.90;999.90;;;7.10;99.90;;;;;;5083912;28;20021;-79
2023/04/12 02:13:37;;;;;;;1999.90;999.90;;;7.00;99.90;;;;;;5106900;28;20084;-78
2023/04/12 02:16:03;;;;;;;1999.90;999.90;;;7.00;99.90;;;;;;5097998;28;20509;-77
2023/04/12 02:18:29;;;;;;;1999.90;999.90;;;7.00;99.90;;;;;;5070652;28;20045;-78
2023/04/12 02:20:55;;;;;;;1999.90;999.90;;;7.00;99.90;;;;;;5077004;28;20052;-78
2023/04/12 02:23:21;;;;;;;1999.90;999.90;;;6.90;99.90;;;;;;5058265;28;20032;-78
2023/04/12 02:25:46;;;;;;;1999.90;999.90;;;6.90;99.90;;;;;;5077992;28;20029;-78
2023/04/12 02:28:12;;;;;;;1999.90;999.90;;;6.90;99.90;;;;;;5097125;28;20044;-77
2023/04/12 02:30:40;;;;;;;1999.90;999.90;;;6.90;99.90;;;;;;5097246;28;20029;-77
2023/04/12 02:33:07;;;;;;;1999.90;999.90;;;6.90;99.90;;;;;;5078592;28;20525;-78
2023/04/12 02:35:33;;;;;;;1999.90;999.90;;;7.00;99.90;;;;;;5096897;28;20870;-79
2023/04/12 02:37:58;;;;;;;1999.90;999.90;;;6.90;99.90;;;;;;5078042;28;20029;-78
2023/04/12 02:40:24;;;;;;;1999.90;999.90;;;6.90;99.90;;;;;;5097066;28;20024;-79
2023/04/12 02:42:50;;;;;;;1999.90;999.90;;;7.00;99.90;;;;;;5078126;28;20516;-79
2023/04/12 02:45:15;;;;;;;1999.90;999.90;;;7.00;99.90;;;;;;5078356;28;20033;-79
2023/04/12 02:47:41;;;;;;;1999.90;999.90;;;7.00;99.90;;;;;;5098013;28;20036;-79
2023/04/12 02:50:07;;;;;;;1999.90;999.90;;;7.10;99.90;;;;;;5074809;28;20052;-79
2023/04/12 02:52:33;;;;;;;1999.90;999.90;;;7.00;99.90;;;;;;5084747;28;20037;-79
2023/04/12 02:54:58;;;;;;;1999.90;999.90;;;7.10;99.90;;;;;;5077936;28;20044;-79
2023/04/12 02:57:24;;;;;;;1999.90;999.90;;;7.00;99.90;;;;;;5096637;28;20037;-79
2023/04/12 02:59:53;;;;;;;1999.90;999.90;;;7.00;99.90;;;;;;5096689;28;20473;-79
2023/04/12 03:02:19;;;;;;;1999.90;999.90;;;7.00;99.90;;;;;;5096363;28;20029;-79
2023/04/12 03:04:52;;;;;;;1999.90;999.90;;;7.10;99.90;;;;;;5077930;28;20029;-79
2023/04/12 03:07:18;;;;;;;1999.90;999.90;;;7.10;99.90;;;;;;5078119;28;20032;-79
2023/04/12 03:09:48;;;;;;;1999.90;999.90;;;7.10;99.90;;;;;;5077934;28;20489;-79
2023/04/12 03:12:15;;;;;;;1999.90;999.90;;;7.10;99.90;;;;;;5096081;28;20056;-79
2023/04/12 03:14:41;;;;;;;1999.90;999.90;;;7.10;99.90;;;;;;5077910;28;20032;-79
2023/04/12 03:17:07;;;;;;;1999.90;999.90;;;7.10;99.90;;;;;;5078092;28;20041;-79
2023/04/12 03:19:34;;;;;;;1999.90;999.90;;;7.10;99.90;;;;;;5096583;28;20032;-79
2023/04/12 03:22:00;;;;;;;1999.90;999.90;;;7.20;99.90;;;;;;5095825;28;20529;-79
2023/04/12 03:24:26;;;;;;;1999.90;999.90;;;7.20;99.90;;;;;;5096052;28;20064;-79
2023/04/12 03:26:52;;;;;;;1999.90;999.90;;;7.20;99.90;;;;;;5063994;28;20029;-79
2023/04/12 03:29:18;;;;;;;1999.90;999.90;;;7.20;99.90;;;;;;5057512;28;20091;-79
2023/04/12 03:31:43;;;;;;;1999.90;999.90;;;7.20;99.90;;;;;;5075482;28;20071;-79
2023/04/12 03:34:09;;;;;;;1999.90;999.90;;;7.20;99.90;;;;;;5057231;28;20430;-79
2023/04/12 03:36:35;;;;;;;1999.90;999.90;;;7.20;99.90;;;;;;5057601;28;20044;-79
2023/04/12 03:39:00;;;;;;;1999.90;999.90;;;7.20;99.90;;;;;;5079024;28;20048;-80
2023/04/12 03:41:27;;;;;;;1999.90;999.90;;;7.20;99.90;;;;;;5061696;28;20075;-79
2023/04/12 03:43:53;;;;;;;1999.90;999.90;;;7.20;99.90;;;;;;5068599;28;20043;-79
2023/04/12 03:46:19;;;;;;;1999.90;999.90;;;7.20;99.90;;;;;;5079500;28;20089;-79
2023/04/12 03:48:44;;;;;;;1999.90;999.90;;;7.20;99.90;;;;;;5091513;28;20047;-80
2023/04/12 03:51:10;;;;;;;1999.90;999.90;;;7.20;99.90;;;;;;5060841;28;20036;-80
2023/04/12 03:53:40;;;;;;;1999.90;999.90;;;7.20;99.90;;;;;;5091216;28;20079;-80
2023/04/12 03:56:06;;;;;;;1999.90;999.90;;;7.20;99.90;;;;;;5067741;28;20041;-80
2023/04/12 03:58:35;;;;;;;1999.90;999.90;;;7.20;99.90;;;;;;5080193;28;20029;-80
2023/04/12 04:01:04;;;;;;;1999.90;999.90;;;7.20;99.90;;;;;;5080060;28;20029;-80
2023/04/12 04:03:33;;;;;;;1999.90;999.90;;;7.20;99.90;;;;;;5061523;28;20039;-80
2023/04/12 04:06:02;;;;;;;1999.90;999.90;;;7.20;99.90;;;;;;5079943;28;20029;-80
2023/04/12 04:08:28;;;;;;;1999.90;999.90;;;7.20;99.90;;;;;;5080616;28;20037;-79
2023/04/12 04:10:55;;;;;;;1999.90;999.90;;;7.20;99.90;;;;;;5080414;28;20486;-80
2023/04/12 04:13:21;;;;;;;1999.90;999.90;;;7.20;99.90;;;;;;5080185;28;21127;-79
2023/04/12 04:15:50;;;;;;;1999.90;999.90;;;7.20;99.90;;;;;;5081196;28;20052;-80
2023/04/12 04:18:15;;;;;;;1999.90;999.90;;;7.20;99.90;;;;;;5084964;28;20025;-79
2023/04/12 04:20:41;;;;;;;1999.90;999.90;;;7.20;99.90;;;;;;5083156;28;20041;-80
2023/04/12 04:23:09;;;;;;;1999.90;999.90;;;7.20;99.90;;;;;;5079899;28;20029;-79
2023/04/12 04:25:38;;;;;;;1999.90;999.90;;;7.20;99.90;;;;;;5080058;28;20025;-79
2023/04/12 04:28:06;;;;;;;1999.90;999.90;;;7.20;99.90;;;;;;5078677;28;20469;-80
2023/04/12 04:30:37;;;;;;;1999.90;999.90;;;7.20;99.90;;;;;;5078592;28;20041;-79
2023/04/12 04:33:03;;;;;;;1999.90;999.90;;;7.20;99.90;;;;;;5074018;28;20029;-77
2023/04/12 04:35:30;;;;;;;1999.90;999.90;;;7.20;99.90;;;;;;5080651;28;20454;-76
2023/04/12 04:37:56;;;;;;;1999.90;999.90;;;7.20;99.90;;;;;;5097493;28;20034;-80
2023/04/12 04:40:23;;;;;;;1999.90;999.90;;;7.20;99.90;;;;;;5095974;28;20063;-78
2023/04/12 04:42:53;;;;;;;1999.90;999.90;;;7.20;99.90;;;;;;5056562;28;20053;-77
2023/04/12 04:45:25;;;;;;;1999.90;999.90;;;7.20;99.90;;;;;;5056072;28;20075;-76
2023/04/12 04:47:52;;;;;;;1999.90;999.90;;;7.20;99.90;;;;;;5056464;28;20061;-78
2023/04/12 04:50:18;;;;;;;1999.90;999.90;;;7.20;99.90;;;;;;5074498;28;20033;-77
2023/04/12 04:52:43;;;;;;;1999.90;999.90;;;7.20;99.90;;;;;;5074446;28;20029;-77
2023/04/12 04:55:09;;;;;;;1999.90;999.90;;;7.20;99.90;;;;;;5056749;28;20494;-80
2023/04/12 04:57:35;;;;;;;1999.90;999.90;;;7.20;99.90;;;;;;5094994;28;20037;-80
2023/04/12 05:00:09;;;;;;;1999.90;999.90;;;7.20;99.90;;;;;;5081013;28;20037;-77
2023/04/12 05:02:35;;;;;;;1999.90;999.90;;;7.20;99.90;;;;;;5083945;28;20029;-81
2023/04/12 05:05:03;;;;;;;1999.90;999.90;;;7.20;99.90;;;;;;5081896;28;20044;-80
2023/04/12 05:07:28;;;;;;;1999.90;999.90;;;7.20;99.90;;;;;;5089259;28;20040;-81
2023/04/12 05:09:54;;;;;;;1999.90;999.90;;;7.20;99.90;;;;;;5064011;28;20037;-81
2023/04/12 05:12:20;;;;;;;1999.90;999.90;;;7.20;99.90;;;;;;5063234;28;20043;-81
2023/04/12 05:14:45;;;;;;;1999.90;999.90;;;7.20;99.90;;;;;;5063635;28;20789;-81
2023/04/12 05:17:11;;;;;;;1999.90;999.90;;;7.20;99.90;;;;;;5063995;28;20513;-81
2023/04/12 05:19:36;;;;;;;1999.90;999.90;;;7.20;99.90;;;;;;5082992;28;20090;-82
2023/04/12 05:22:02;;;;;;;1999.90;999.90;;;7.20;99.90;;;;;;5065971;28;20191;-82
2023/04/12 05:24:27;;;;;;;1999.90;999.90;;;7.20;99.90;;;;;;5087274;28;20044;-81
2023/04/12 05:26:53;;;;;;;1999.90;999.90;;;7.20;99.90;;;;;;5091317;28;20033;-81
2023/04/12 05:29:18;;;;;;;1999.90;999.90;;;7.30;99.90;;;;;;5071962;28;20044;-79
2023/04/12 05:31:44;;;;;;;1999.90;999.90;;;7.20;99.90;;;;;;5071710;28;20057;-80
2023/04/12 05:34:10;;;;;;;1999.90;999.90;;;7.30;99.90;;;;;;5083397;28;20494;-79
2023/04/12 05:36:35;;;;;;;1999.90;999.90;;;7.30;99.90;;;;;;5078473;28;20052;-79
2023/04/12 05:39:01;;;;;;;1999.90;999.90;;;7.30;99.90;;;;;;5059285;28;20040;-78
2023/04/12 05:41:26;;;;;;;1999.90;999.90;;;7.30;99.90;;;;;;5059828;28;20053;-82
2023/04/12 05:43:52;;;;;;;1999.90;999.90;;;7.30;99.90;;;;;;5077161;28;20087;-80
2023/04/12 05:46:17;;;;;;;1999.90;999.90;;;7.30;99.90;;;;;;5077310;28;20025;-78
2023/04/12 05:48:43;;;;;;;1999.90;999.90;;;7.40;99.90;;;;;;5078121;28;20403;-78
2023/04/12 05:51:08;;;;;;;1999.90;999.90;;;7.40;99.90;;;;;;5059253;28;20036;-78
2023/04/12 05:53:34;;;;;;;1999.90;999.90;;;7.40;99.90;;;;;;5077674;28;20044;-78
2023/04/12 05:56:00;;;;;;;1999.90;999.90;;;7.40;99.90;;;;;;5077067;28;20029;-78
2023/04/12 05:58:25;;;;;;;1999.90;999.90;;;7.40;99.90;;;;;;5077083;28;20040;-78
2023/04/12 06:00:53;;;;;;;1999.90;999.90;;;7.40;99.90;;;;;;5077223;28;20053;-78
2023/04/12 06:03:18;;;;;;;1999.90;999.90;;;7.40;99.90;;;;;;5077088;28;20029;-79
2023/04/12 06:05:44;;;;;;;1999.90;999.90;;;7.40;99.90;;;;;;5076469;28;20040;-78
2023/04/12 06:08:11;;;;;;;1999.90;999.90;;;7.40;99.90;;;;;;5060170;28;20418;-81
2023/04/12 06:10:37;;;;;;;1999.90;999.90;;;7.50;99.90;;;;;;5083887;28;20036;-83
2023/04/12 06:13:02;;;;;;;1999.90;999.90;;;7.50;99.90;;;;;;5063474;28;20037;-82
2023/04/12 06:15:30;;;;;;;1999.90;999.90;;;7.50;99.90;;;;;;5081468;28;20037;-79
2023/04/12 06:17:57;;;;;;;1999.90;999.90;;;7.50;99.90;;;;;;5077380;28;20031;-78
2023/04/12 06:20:22;;;;;;;1999.90;999.90;;;7.50;99.90;;;;;;5080157;28;20033;-78
2023/04/12 06:22:48;;;;;;;1999.90;999.90;;;7.60;99.90;;;;;;5063813;28;20033;-78
2023/04/12 06:25:15;;;;;;;1999.90;999.90;;;7.60;99.90;;;;;;5080872;28;20041;-78
2023/04/12 06:27:41;;;;;;;1999.90;999.90;;;7.60;99.90;;;;;;5060023;28;20025;-81
2023/04/12 06:30:07;;;;;;;1999.90;999.90;;;7.60;99.90;;;;;;5059520;28;20037;-79
2023/04/12 06:32:33;;;;;;;1999.90;999.90;;;7.70;99.90;;;;;;5079128;28;20834;-82
2023/04/12 06:34:58;;;;;;;1999.90;999.90;;;7.70;99.90;;;;;;5078380;28;20029;-78
2023/04/12 06:37:24;;;;;;;1999.90;999.90;;;7.70;99.90;;;;;;5059487;28;20037;-79
2023/04/12 06:39:50;;;;;;;1999.90;999.90;;;7.70;99.90;;;;;;5077026;28;20048;-78
2023/04/12 06:42:16;;;;;;;1999.90;999.90;;;7.70;99.90;;;;;;5074400;22;20024;-80
2023/04/12 06:44:41;;;;;;;1999.90;999.90;;;7.80;99.90;;;;;;5098910;28;20563;-80
2023/04/12 06:47:08;;;;;;;1999.90;999.90;;;7.80;99.90;;;;;;5099632;28;20074;-80
2023/04/12 06:49:33;;;;;;;1999.90;999.90;;;7.80;99.90;;;;;;5080707;28;20135;-79
2023/04/12 06:51:59;;;;;;;1999.90;999.90;;;7.90;99.90;;;;;;5080869;28;20115;-79
2023/04/12 06:54:24;;;;;;;1999.90;999.90;;;7.90;99.90;;;;;;5099684;28;20070;-79
2023/04/12 06:56:50;;;;;;;1999.90;999.90;;;7.90;99.90;;;;;;5081519;28;20040;-79
2023/04/12 06:59:16;;;;;;;1999.90;999.90;;;7.90;99.90;;;;;;5081620;28;20035;-79
2023/04/12 07:01:42;;;;;;;1999.90;999.90;;;7.90;99.90;;;;;;5099832;28;20028;-79
2023/04/12 07:04:07;;;;;;;1999.90;999.90;;;8.00;99.90;;;;;;5081087;28;20420;-79
2023/04/12 07:06:33;;;;;;;1999.90;999.90;;;8.00;99.90;;;;;;5081032;28;20116;-79
2023/04/12 07:08:58;;;;;;;1999.90;999.90;;;8.10;99.90;;;;;;5081309;28;20185;-78
2023/04/12 07:11:24;;;;;;;1999.90;999.90;;;8.10;99.90;;;;;;5082257;28;20044;-79
2023/04/12 07:13:50;;;;;;;1999.90;999.90;;;8.10;99.90;;;;;;5081089;28;20041;-79
2023/04/12 07:16:16;;;;;;;1999.90;999.90;;;8.10;99.90;;;;;;5082710;28;20034;-79
2023/04/12 07:18:43;;;;;;;1999.90;999.90;;;8.10;99.90;;;;;;5099538;28;20032;-81
2023/04/12 07:21:08;;;;;;;1999.90;999.90;;;8.20;99.90;;;;;;5098843;28;20458;-80
2023/04/12 07:23:34;;;;;;;1999.90;999.90;;;8.30;99.90;;;;;;5099075;28;20029;-80
2023/04/12 07:26:01;;;;;;;1999.90;999.90;;;8.30;99.90;;;;;;5080324;28;20436;-80
2023/04/12 07:28:27;;;;;;;1999.90;999.90;;;8.40;99.90;;;;;;5099124;28;20036;-80
2023/04/12 07:30:52;;;;;;;1999.90;999.90;;;8.40;99.90;;;;;;5080585;28;20036;-80
2023/04/12 07:33:18;;;;;;;1999.90;999.90;;;8.40;99.90;;;;;;5080412;28;20064;-80
2023/04/12 07:35:44;;;;;;;1999.90;999.90;;;8.40;99.90;;;;;;5099185;28;20040;-80
2023/04/12 07:38:09;;;;;;;1999.90;999.90;;;8.40;99.90;;;;;;5099772;28;20028;-80
2023/04/12 07:40:35;;;;;;;1999.90;999.90;;;8.40;99.90;;;;;;5081096;28;20040;-81
2023/04/12 07:43:00;;;;;;;1999.90;999.90;;;8.50;99.90;;;;;;5099852;28;20032;-80
2023/04/12 07:45:26;;;;;;;1999.90;999.90;;;8.50;99.90;;;;;;5099079;28;20063;-81
2023/04/12 07:47:51;;;;;;;1999.90;999.90;;;8.50;99.90;;;;;;5107892;28;20048;-81
2023/04/12 07:50:17;;;;;;;1999.90;999.90;;;8.50;99.90;;;;;;5108429;28;20405;-80
2023/04/12 07:52:42;;;;;;;1999.90;999.90;;;8.60;99.90;;;;;;5098762;28;20037;-81
2023/04/12 07:55:09;;;;;;;1999.90;999.90;;;8.60;99.90;;;;;;5099460;28;20060;-80
2023/04/12 07:57:34;;;;;;;1999.90;999.90;;;8.60;99.90;;;;;;5099070;28;20035;-80
2023/04/12 08:00:00;;;;;;;1999.90;999.90;;;8.60;99.90;;;;;;5098712;28;20055;-81
2023/04/12 08:02:25;;;;;;;1999.90;999.90;;;8.70;99.90;;;;;;5080129;28;20520;-80
2023/04/12 08:04:54;;;;;;;1999.90;999.90;;;8.80;99.90;;;;;;5099304;28;20493;-80
2023/04/12 08:07:23;;;;;;;1999.90;999.90;;;8.80;99.90;;;;;;5100519;28;20055;-80
2023/04/12 08:09:49;;;;;;;1999.90;999.90;;;8.90;99.90;;;;;;5079797;28;20504;-80
2023/04/12 08:12:15;;;;;;;1999.90;999.90;;;9.00;99.90;;;;;;5096109;28;20497;-79
2023/04/12 08:14:41;;;;;;;1999.90;999.90;;;9.00;99.90;;;;;;5077633;28;20082;-79
2023/04/12 08:17:06;;;;;;;1999.90;999.90;;;9.00;99.90;;;;;;5096337;28;20029;-80
2023/04/12 08:19:32;;;;;;;1999.90;999.90;;;9.00;99.90;;;;;;5082618;28;20040;-80
2023/04/12 08:21:58;;;;;;;1999.90;999.90;;;9.00;99.90;;;;;;5081117;28;20037;-79
2023/04/12 08:24:23;;;;;;;1999.90;999.90;;;9.10;99.90;;;;;;5099952;28;20048;-78
2023/04/12 08:26:50;;;;;;;1999.90;999.90;;;9.00;99.90;;;;;;5081807;28;20028;-80
2023/04/12 08:29:16;;;;;;;1999.90;999.90;;;9.10;99.90;;;;;;5080533;28;20044;-79
2023/04/12 08:31:41;;;;;;;1999.90;999.90;;;9.20;99.90;;;;;;5099798;28;20029;-79
2023/04/12 08:34:07;;;;;;;1999.90;999.90;;;9.20;99.90;;;;;;5098439;28;20500;-79
2023/04/12 08:36:32;;;;;;;1999.90;999.90;;;9.40;99.90;;;;;;5079998;28;20039;-79
2023/04/12 08:38:59;;;;;;;1999.90;999.90;;;9.40;99.90;;;;;;5100459;28;20032;-79
2023/04/12 08:41:25;;;;;;;1999.90;999.90;;;9.40;99.90;;;;;;5101145;28;20025;-78
2023/04/12 08:43:51;;;;;;;1999.90;999.90;;;9.40;99.90;;;;;;5101106;28;20044;-79
2023/04/12 08:46:17;;;;;;;1999.90;999.90;;;9.30;99.90;;;;;;5099330;28;20098;-81
2023/04/12 08:48:45;;;;;;;1999.90;999.90;;;9.30;99.90;;;;;;5081918;28;20129;-80
2023/04/12 08:51:14;;;;;;;1999.90;999.90;;;9.30;99.90;;;;;;5082421;28;20028;-80
2023/04/12 08:53:39;;;;;;;1999.90;999.90;;;9.30;99.90;;;;;;5081999;28;20098;-80
2023/04/12 08:56:12;;;;;;;1999.90;999.90;;;9.20;99.90;;;;;;5081777;28;20117;-80
2023/04/12 08:58:40;;;;;;;1999.90;999.90;;;9.20;99.90;;;;;;5081289;28;20097;-80
2023/04/12 09:01:16;;;;;;;1999.90;999.90;;;9.30;99.90;;;;;;5080858;28;20032;-80
2023/04/12 09:03:43;;;;;;;1999.90;999.90;;;9.40;99.90;;;;;;5079777;28;20029;-78
2023/04/12 09:06:10;;;;;;;1999.90;999.90;;;9.50;99.90;;;;;;5079015;28;20035;-80
2023/04/12 09:08:35;;;;;;;1999.90;999.90;;;9.80;99.90;;;;;;5098180;28;20086;-80
2023/04/12 09:11:01;;;;;;;1999.90;999.90;;;10.00;99.90;;;;;;5079185;28;20082;-80
2023/04/12 09:13:35;;;;;;;1999.90;999.90;;;10.10;99.90;;;;;;5081223;28;20029;-80
2023/04/12 09:16:02;;;;;;;1999.90;999.90;;;10.10;99.90;;;;;;5080258;28;20120;-80
2023/04/12 09:18:28;;;;;;;1999.90;999.90;;;10.10;99.90;;;;;;5100478;28;20043;-80
2023/04/12 09:21:07;;;;;;;1999.90;999.90;;;10.30;99.90;;;;;;5100551;28;20088;-80
2023/04/12 09:23:36;;;;;;;1999.90;999.90;;;10.40;99.90;;;;;;5080343;28;20075;-80
2023/04/12 09:26:02;;;;;;;1999.90;999.90;;;10.50;99.90;;;;;;5080752;28;20462;-81
2023/04/12 09:28:29;;;;;;;1999.90;999.90;;;10.50;99.90;;;;;;5100108;28;20039;-81
2023/04/12 09:30:59;;;;;;;1999.90;999.90;;;10.50;99.90;;;;;;5099972;28;20040;-80
2023/04/12 09:33:38;;;;;;;1999.90;999.90;;;10.60;99.90;;;;;;5081243;28;20025;-79
2023/04/12 09:36:05;;;;;;;1999.90;999.90;;;10.70;99.90;;;;;;5080472;28;20036;-80
2023/04/12 09:38:32;;;;;;;1999.90;999.90;;;10.60;99.90;;;;;;5098501;28;20515;-80
2023/04/12 09:41:18;;;;;;;1999.90;999.90;;;10.60;99.90;;;;;;5080567;28;20488;-81
2023/04/12 09:43:44;;;;;;;1999.90;999.90;;;10.60;99.90;;;;;;5100083;28;20194;-80
2023/04/12 09:46:11;;;;;;;1999.90;999.90;;;10.50;99.90;;;;;;5082253;28;20170;-80
2023/04/12 09:48:47;;;;;;;1999.90;999.90;;;10.50;99.90;;;;;;5083001;28;20028;-81
2023/04/12 09:51:22;;;;;;;1999.90;999.90;;;10.50;99.90;;;;;;5085144;28;20406;-81
2023/04/12 09:53:50;;;;;;;1999.90;999.90;;;10.50;99.90;;;;;;5087736;28;20029;-82
2023/04/12 09:56:17;;;;;;;1999.90;999.90;;;10.60;99.90;;;;;;5086138;28;20119;-80
2023/04/12 09:58:44;;;;;;;1999.90;999.90;;;10.70;99.90;;;;;;5089091;28;20029;-79
2023/04/12 10:01:10;;;;;;;1999.90;999.90;;;10.70;99.90;;;;;;5089148;28;20032;-79
2023/04/12 10:03:36;;;;;;;1999.90;999.90;;;10.70;99.90;;;;;;5088564;28;20891;-79
2023/04/12 10:06:04;;;;;;;1999.90;999.90;;;10.60;99.90;;;;;;5093299;28;20080;-79
2023/04/12 10:08:30;;;;;;;1999.90;999.90;;;10.70;99.90;;;;;;5096911;28;20116;-82
2023/04/12 10:10:57;;;;;;;1999.90;999.90;;;11.00;99.90;;;;;;5085716;28;20028;-79
2023/04/12 10:13:24;;;;;;;1999.90;999.90;;;11.10;99.90;;;;;;5087227;28;20033;-80
2023/04/12 10:15:51;;;;;;;1999.90;999.90;;;11.30;99.90;;;;;;5104355;28;20036;-80
2023/04/12 10:18:17;;;;;;;1999.90;999.90;;;11.60;99.90;;;;;;5086226;28;20043;-80
2023/04/12 10:20:45;;;;;;;1999.90;999.90;;;11.70;99.90;;;;;;5086406;28;20454;-80
2023/04/12 10:23:11;;;;;;;1999.90;999.90;;;11.60;99.90;;;;;;5085383;28;20064;-79
2023/04/12 10:25:39;;;;;;;1999.90;999.90;;;11.80;99.90;;;;;;5084514;28;20032;-80
2023/04/12 10:28:20;;;;;;;1999.90;999.90;;;12.00;99.90;;;;;;5083987;28;20047;-80
2023/04/12 10:30:50;;;;;;;1999.90;999.90;;;12.00;99.90;;;;;;5082915;28;20847;-82
2023/04/12 10:33:19;;;;;;;1999.90;999.90;;;12.40;99.90;;;;;;5080250;28;20063;-79
2023/04/12 10:35:52;;;;;;;1999.90;999.90;;;12.30;99.90;;;;;;5103918;28;20080;-81
2023/04/12 10:38:18;;;;;;;1999.90;999.90;;;12.60;99.90;;;;;;5084755;28;20020;-83
2023/04/12 10:41:12;;;;;;;1999.90;999.90;;;12.90;99.90;;;;;;5083834;28;20472;-81
2023/04/12 10:43:38;;;;;;;1999.90;999.90;;;12.40;99.90;;;;;;5083693;28;20040;-81
2023/04/12 10:46:05;;;;;;;1999.90;999.90;;;12.30;99.90;;;;;;5082429;28;20163;-79
2023/04/12 10:48:35;;;;;;;1999.90;999.90;;;12.30;99.90;;;;;;5080314;28;20028;-79
2023/04/12 10:51:24;;;;;;;1999.90;999.90;;;12.40;99.90;;;;;;5082390;28;20085;-81
2023/04/12 10:54:09;;;;;;;1999.90;999.90;;;12.40;99.90;;;;;;5070868;28;20114;-80
2023/04/12 10:56:37;;;;;;;1999.90;999.90;;;12.20;99.90;;;;;;5081302;28;20859;-81
2023/04/12 10:59:04;;;;;;;1999.90;999.90;;;12.00;99.90;;;;;;5098642;28;20036;-79
2023/04/12 11:01:30;;;;;;;1999.90;999.90;;;12.10;99.90;;;;;;5083632;28;20476;-80
2023/04/12 11:04:16;;;;;;;1999.90;999.90;;;12.30;99.90;;;;;;5097960;28;20032;-80
2023/04/12 11:06:50;;;;;;;1999.90;999.90;;;12.20;99.90;;;;;;5079064;28;20037;-82
2023/04/12 11:09:24;;;;;;;1999.90;999.90;;;12.40;99.90;;;;;;5098459;28;20045;-80
2023/04/12 11:11:55;;;;;;;1999.90;999.90;;;12.50;99.90;;;;;;5098723;28;20171;-80
2023/04/12 11:14:27;;;;;;;1999.90;999.90;;;12.80;99.90;;;;;;5078882;28;20042;-79
2023/04/12 11:17:05;;;;;;;1999.90;999.90;;;13.10;99.90;;;;;;5079759;28;20028;-80
2023/04/12 11:19:37;;;;;;;1999.90;999.90;;;13.20;99.90;;;;;;5097281;28;20054;-80
2023/04/12 11:22:05;;;;;;;1999.90;999.90;;;13.30;99.90;;;;;;5097377;28;20029;-82
2023/04/12 11:24:30;;;;;;;1999.90;999.90;;;13.60;99.90;;;;;;5082412;28;20029;-80
2023/04/12 11:26:57;;;;;;;1999.90;999.90;;;13.30;99.90;;;;;;5081955;28;20043;-82
2023/04/12 11:29:23;;;;;;;1999.90;999.90;;;13.10;99.90;;;;;;5100136;28;20395;-80
2023/04/12 11:31:49;;;;;;;1999.90;999.90;;;13.00;99.90;;;;;;5082555;28;20059;-81
2023/04/12 11:34:18;;;;;;;1999.90;999.90;;;13.10;99.90;;;;;;5081011;28;20494;-80
2023/04/12 11:36:45;;;;;;;1999.90;999.90;;;13.10;99.90;;;;;;5082432;28;20033;-80
2023/04/12 11:39:11;;;;;;;1999.90;999.90;;;13.40;99.90;;;;;;5081259;28;20039;-81
2023/04/12 11:41:48;;;;;;;1999.90;999.90;;;13.30;99.90;;;;;;5098681;28;20029;-81
2023/04/12 11:44:20;;;;;;;1999.90;999.90;;;13.10;99.90;;;;;;5080045;28;20043;-80
2023/04/12 11:46:46;;;;;;;1999.90;999.90;;;13.10;99.90;;;;;;5078990;28;20033;-80
2023/04/12 11:49:16;;;;;;;1999.90;999.90;;;13.30;99.90;;;;;;5080470;28;20043;-80
2023/04/12 11:51:42;;;;;;;1999.90;999.90;;;13.40;99.90;;;;;;5099022;28;20629;-81
2023/04/12 11:54:10;;;;;;;1999.90;999.90;;;13.70;99.90;;;;;;5077888;28;20037;-81
2023/04/12 11:56:36;;;;;;;1999.90;999.90;;;13.80;99.90;;;;;;5079099;28;20059;-82
2023/04/12 11:59:01;;;;;;;1999.90;999.90;;;13.80;99.90;;;;;;5078402;28;20059;-82
2023/04/12 12:01:28;;;;;;;1999.90;999.90;;;13.70;99.90;;;;;;5078765;28;20063;-83
2023/04/12 12:03:54;;;;;;;1999.90;999.90;;;13.90;99.90;;;;;;5080171;28;20055;-80
2023/04/12 12:06:21;;;;;;;1999.90;999.90;;;13.80;99.90;;;;;;5078754;28;20032;-79
2023/04/12 12:08:50;;;;;;;1999.90;999.90;;;13.80;99.90;;;;;;5096271;28;20040;-80